createdAt,value
2022-12-04T00:00:13.296Z,52.65
2022-12-04T00:02:36.077Z,54.67
2022-12-04T00:04:58.693Z,53.33
2022-12-04T00:07:21.132Z,53.13
2022-12-04T00:09:43.438Z,52.20
2022-12-04T00:12:05.997Z,52.20
2022-12-04T00:14:28.339Z,53.95
2022-12-04T00:16:50.702Z,53.08
2022-12-04T00:19:13.256Z,52.15
2022-12-04T00:21:35.554Z,51.92
2022-12-04T00:23:57.868Z,52.58
2022-12-04T00:26:25.589Z,54.20
2022-12-04T00:28:48.070Z,50.67
2022-12-04T00:31:13.377Z,52.72
2022-12-04T00:33:36.014Z,49.38
2022-12-04T00:36:03.358Z,51.53
2022-12-04T00:38:25.708Z,50.67
2022-12-04T00:40:52.020Z,52.60
2022-12-04T00:43:14.324Z,52.15
2022-12-04T00:45:36.666Z,51.63
2022-12-04T00:47:59.027Z,51.95
2022-12-04T00:50:21.500Z,54.40
2022-12-04T00:52:43.824Z,52.22
2022-12-04T00:55:06.919Z,51.53
2022-12-04T00:57:29.240Z,51.50
2022-12-04T00:59:51.657Z,54.00
2022-12-04T01:02:14.093Z,53.72
2022-12-04T01:04:36.423Z,53.85
2022-12-04T01:07:04.632Z,52.50
2022-12-04T01:09:27.182Z,51.78
2022-12-04T01:11:49.493Z,53.37
2022-12-04T01:14:11.799Z,52.70
2022-12-04T01:16:36.978Z,53.78
2022-12-04T01:18:59.560Z,50.63
2022-12-04T01:21:21.948Z,49.85
2022-12-04T01:23:44.432Z,51.40
2022-12-04T01:26:06.733Z,53.08
2022-12-04T01:28:29.098Z,50.60
2022-12-04T01:31:04.642Z,49.88
2022-12-04T01:33:27.652Z,52.03
2022-12-04T01:35:57.853Z,51.72
2022-12-04T01:38:20.159Z,53.35
2022-12-04T01:40:44.766Z,50.50
2022-12-04T01:43:09.651Z,50.58
2022-12-04T01:45:50.697Z,51.15
2022-12-04T01:48:32.177Z,49.00
2022-12-04T01:51:29.122Z,50.20
2022-12-04T01:53:57.460Z,45.50
2022-12-04T01:56:22.605Z,48.90
2022-12-04T01:58:47.891Z,48.40
2022-12-04T02:01:10.482Z,49.03
2022-12-04T02:03:32.836Z,47.33
2022-12-04T02:05:55.181Z,47.30
2022-12-04T02:08:17.627Z,47.92
2022-12-04T02:11:12.527Z,48.17
2022-12-04T02:14:41.313Z,48.00
2022-12-04T02:17:13.756Z,48.92
2022-12-04T02:20:26.683Z,46.65
2022-12-04T02:23:24.445Z,46.75
2022-12-04T02:26:23.193Z,44.25
2022-12-04T02:28:56.200Z,45.80
2022-12-04T02:31:28.426Z,46.60
2022-12-04T02:34:07.305Z,44.88
2022-12-04T02:36:32.327Z,45.80
2022-12-04T02:39:23.179Z,46.42
2022-12-04T02:42:16.876Z,45.60
2022-12-04T02:44:45.580Z,45.53
2022-12-04T02:47:11.288Z,44.17
2022-12-04T02:49:39.055Z,42.35
2022-12-04T02:52:01.564Z,42.65
2022-12-04T02:54:37.360Z,44.83
2022-12-04T02:57:00.232Z,41.42
2022-12-04T02:59:42.882Z,44.40
2022-12-04T03:02:22.967Z,42.92
2022-12-04T03:04:45.350Z,42.65
2022-12-04T03:07:13.493Z,43.30
2022-12-04T03:10:08.849Z,44.17
2022-12-04T03:12:41.314Z,44.42
2022-12-04T03:15:33.141Z,44.08
2022-12-04T03:18:15.598Z,44.60
2022-12-04T03:20:37.937Z,45.40
2022-12-04T03:23:06.635Z,44.00
2022-12-04T03:25:35.828Z,42.40
2022-12-04T03:28:01.775Z,45.85
2022-12-04T03:30:24.343Z,45.80
2022-12-04T03:32:58.375Z,45.25
2022-12-04T03:35:57.391Z,47.50
2022-12-04T03:38:19.595Z,45.60
2022-12-04T03:40:47.862Z,44.38
2022-12-04T03:43:51.210Z,46.28
2022-12-04T03:46:39.930Z,45.70
2022-12-04T03:49:13.979Z,48.25
2022-12-04T03:52:06.904Z,46.08
2022-12-04T03:54:35.542Z,45.85
2022-12-04T03:57:02.152Z,45.05
2022-12-04T03:59:30.587Z,46.30
2022-12-04T04:01:53.067Z,46.25
2022-12-04T04:04:19.858Z,45.17
2022-12-04T04:06:48.494Z,42.78
2022-12-04T04:09:15.968Z,48.15
2022-12-04T04:11:46.843Z,43.92
2022-12-04T04:14:32.907Z,47.10
2022-12-04T04:17:21.031Z,45.75
2022-12-04T04:20:01.975Z,45.03
2022-12-04T04:22:43.158Z,44.22
2022-12-04T04:25:17.582Z,44.30
2022-12-04T04:27:39.909Z,44.97
2022-12-04T04:30:02.262Z,44.67
2022-12-04T04:32:36.716Z,46.70
2022-12-04T04:35:22.904Z,45.10
2022-12-04T04:38:21.682Z,44.80
2022-12-04T04:40:52.471Z,43.08
2022-12-04T04:43:46.382Z,44.50
2022-12-04T04:46:33.844Z,43.38
2022-12-04T04:48:58.797Z,43.20
2022-12-04T04:51:21.148Z,44.55
2022-12-04T04:53:50.678Z,42.80
2022-12-04T04:56:13.121Z,42.15
2022-12-04T04:58:35.488Z,41.15
2022-12-04T05:01:11.479Z,42.90
2022-12-04T05:03:33.987Z,44.35
2022-12-04T05:05:56.451Z,41.03
2022-12-04T05:08:18.861Z,42.05
2022-12-04T05:10:41.208Z,40.25
2022-12-04T05:13:03.507Z,41.13
2022-12-04T05:15:26.948Z,42.50
2022-12-04T05:17:49.272Z,42.10
2022-12-04T05:20:11.974Z,40.23
2022-12-04T05:22:36.148Z,40.05
2022-12-04T05:24:58.692Z,39.78
2022-12-04T05:27:21.918Z,41.50
2022-12-04T05:32:06.501Z,39.78
2022-12-04T05:34:28.813Z,40.10
2022-12-04T05:36:51.164Z,38.47
2022-12-04T05:39:13.920Z,39.92
2022-12-04T05:41:36.233Z,40.20
2022-12-04T05:43:58.609Z,40.97
2022-12-04T05:46:20.983Z,36.70
2022-12-04T05:48:43.311Z,39.95
2022-12-04T05:51:09.417Z,38.60
2022-12-04T05:53:31.711Z,39.63
2022-12-04T05:56:00.421Z,41.70
2022-12-04T05:58:22.732Z,36.83
2022-12-04T06:00:45.049Z,38.17
2022-12-04T06:03:07.368Z,38.28
2022-12-04T06:05:29.697Z,37.47
2022-12-04T06:07:52.028Z,37.90
2022-12-04T06:10:14.347Z,36.90
2022-12-04T06:12:36.697Z,36.37
2022-12-04T06:14:58.982Z,39.83
2022-12-04T06:17:21.338Z,38.33
2022-12-04T06:19:43.636Z,36.35
2022-12-04T06:22:05.949Z,36.53
2022-12-04T06:24:28.297Z,37.45
2022-12-04T06:27:25.631Z,36.55
2022-12-04T06:29:33.212Z,34.10
2022-12-04T06:31:55.578Z,35.77
2022-12-04T06:34:18.203Z,36.13
2022-12-04T06:36:40.572Z,33.20
2022-12-04T06:39:03.006Z,34.42
2022-12-04T06:41:25.996Z,34.47
2022-12-04T06:43:48.903Z,32.83
2022-12-04T06:46:18.935Z,34.38
2022-12-04T06:48:41.692Z,34.22
2022-12-04T06:51:07.681Z,33.85
2022-12-04T06:53:30.400Z,32.70
2022-12-04T06:55:52.739Z,32.25
2022-12-04T06:58:15.042Z,31.73
2022-12-04T07:00:37.382Z,31.57
2022-12-04T07:02:59.743Z,33.33
2022-12-04T07:05:22.055Z,34.33
2022-12-04T07:07:44.397Z,32.17
2022-12-04T07:10:07.692Z,33.22
2022-12-04T07:14:52.219Z,31.25
2022-12-04T07:17:14.588Z,34.17
2022-12-04T07:19:37.467Z,32.53
2022-12-04T07:21:59.786Z,33.42
2022-12-04T07:24:22.076Z,30.25
2022-12-04T07:26:44.446Z,29.90
2022-12-04T07:29:06.754Z,32.10
2022-12-04T07:31:29.557Z,31.53
2022-12-04T07:33:54.105Z,31.13
2022-12-04T07:36:19.537Z,29.63
2022-12-04T07:38:42.086Z,30.10
2022-12-04T07:41:05.498Z,31.90
2022-12-04T07:43:28.682Z,30.67
2022-12-04T07:45:51.060Z,31.42
2022-12-04T07:48:13.447Z,28.30
2022-12-04T07:50:35.781Z,30.90
2022-12-04T07:52:58.061Z,29.33
2022-12-04T07:55:23.266Z,31.00
2022-12-04T07:57:45.852Z,30.67
2022-12-04T08:00:09.309Z,29.87
2022-12-04T08:02:31.621Z,29.70
2022-12-04T08:04:54.062Z,29.37
2022-12-04T08:07:16.450Z,30.33
2022-12-04T08:09:38.808Z,29.70
2022-12-04T08:12:01.117Z,30.55
2022-12-04T08:14:23.442Z,32.80
2022-12-04T08:16:51.047Z,30.20
2022-12-04T08:19:14.964Z,30.83
2022-12-04T08:21:37.306Z,29.00
2022-12-04T08:24:00.339Z,31.52
2022-12-04T08:26:23.787Z,31.15
2022-12-04T08:28:46.173Z,29.42
2022-12-04T08:31:18.021Z,30.43
2022-12-04T08:33:41.067Z,28.92
2022-12-04T08:36:07.530Z,29.08
2022-12-04T08:38:29.857Z,30.02
2022-12-04T08:40:52.164Z,31.93
2022-12-04T08:43:14.460Z,33.08
2022-12-04T08:45:36.759Z,29.63
2022-12-04T08:47:59.102Z,31.20
2022-12-04T08:50:21.410Z,31.27
2022-12-04T08:52:43.718Z,30.60
2022-12-04T08:55:06.790Z,32.73
2022-12-04T08:57:29.148Z,31.40
2022-12-04T08:59:51.424Z,30.80
2022-12-04T09:01:53.691Z,32.58
2022-12-04T09:03:56.011Z,31.77
2022-12-04T09:06:01.471Z,31.67
2022-12-04T09:08:03.772Z,31.17
2022-12-04T09:10:06.677Z,31.00
2022-12-04T09:12:08.652Z,31.17
2022-12-04T09:16:19.447Z,33.08
2022-12-04T09:18:21.408Z,31.08
2022-12-04T09:20:23.344Z,31.58
2022-12-04T09:22:25.301Z,32.15
2022-12-04T09:24:28.207Z,32.80
2022-12-04T09:26:32.189Z,32.67
2022-12-04T09:28:34.561Z,31.23
2022-12-04T09:30:36.561Z,33.40
2022-12-04T09:32:38.604Z,30.63
2022-12-04T09:34:40.774Z,33.78
2022-12-04T09:36:42.910Z,32.72
2022-12-04T09:38:46.898Z,31.92
2022-12-04T09:41:24.085Z,32.38
2022-12-04T09:43:42.533Z,30.42
2022-12-04T09:45:48.139Z,32.05
2022-12-04T09:47:53.615Z,33.10
2022-12-04T09:50:37.333Z,33.28
2022-12-04T09:52:59.775Z,29.20
2022-12-04T09:55:03.369Z,31.73
2022-12-04T09:57:37.652Z,30.80
2022-12-04T09:59:39.925Z,33.45
2022-12-04T10:02:29.910Z,32.08
2022-12-04T10:04:32.279Z,30.88
2022-12-04T10:07:07.023Z,31.25
2022-12-04T10:09:32.273Z,28.65
2022-12-04T10:12:01.904Z,31.30
2022-12-04T10:15:03.701Z,29.55
2022-12-04T10:18:09.813Z,28.90
2022-12-04T10:20:51.835Z,29.25
2022-12-04T10:23:25.081Z,28.45
2022-12-04T10:25:27.646Z,32.05
2022-12-04T10:27:44.744Z,29.83
2022-12-04T10:29:50.789Z,29.25
2022-12-04T10:31:55.570Z,29.70
2022-12-04T10:34:23.711Z,29.38
2022-12-04T10:36:32.838Z,26.92
2022-12-04T10:38:47.890Z,28.65
2022-12-04T10:41:15.273Z,30.02
2022-12-04T10:43:43.313Z,30.65
2022-12-04T10:45:45.643Z,28.48
2022-12-04T10:47:48.843Z,28.02
2022-12-04T10:49:58.861Z,28.77
2022-12-04T10:52:01.333Z,28.48
2022-12-04T10:56:19.789Z,29.65
2022-12-04T10:58:22.119Z,27.88
2022-12-04T11:00:30.127Z,28.50
2022-12-04T11:02:33.237Z,28.23
2022-12-04T11:04:36.872Z,29.25
2022-12-04T11:06:38.984Z,28.63
2022-12-04T11:08:48.939Z,28.35
2022-12-04T11:11:02.612Z,28.30
2022-12-04T11:13:14.995Z,27.17
2022-12-04T11:15:18.141Z,28.65
2022-12-04T11:17:20.475Z,29.25
2022-12-04T11:21:43.062Z,28.52
2022-12-04T11:23:51.506Z,28.08
2022-12-04T11:26:00.524Z,28.27
2022-12-04T11:28:06.544Z,28.97
2022-12-04T11:30:13.326Z,28.30
2022-12-04T11:32:33.228Z,28.80
2022-12-04T11:34:38.922Z,27.67
2022-12-04T11:36:41.573Z,30.33
2022-12-04T11:38:44.099Z,30.10
2022-12-04T11:40:56.042Z,30.70
2022-12-04T11:43:17.847Z,32.28
2022-12-04T11:45:22.800Z,31.45
2022-12-04T11:47:29.514Z,33.25
2022-12-04T11:49:32.719Z,31.65
2022-12-04T11:51:50.110Z,32.17
2022-12-04T11:54:06.519Z,30.63
2022-12-04T11:56:31.007Z,32.50
2022-12-04T11:59:12.680Z,31.15
2022-12-04T12:01:41.776Z,33.03
2022-12-04T12:04:25.236Z,35.83
2022-12-04T12:07:00.427Z,33.03
2022-12-04T12:09:22.637Z,32.28
2022-12-04T12:11:52.160Z,34.88
2022-12-04T12:14:32.258Z,35.08
2022-12-04T12:16:58.665Z,36.00
2022-12-04T12:19:18.235Z,35.80
2022-12-04T12:21:33.887Z,34.67
2022-12-04T12:24:18.719Z,34.67
2022-12-04T12:26:21.000Z,35.72
2022-12-04T12:28:59.486Z,38.13
2022-12-04T12:31:19.636Z,37.35
2022-12-04T12:33:28.301Z,33.40
2022-12-04T12:35:53.420Z,37.30
2022-12-04T12:38:01.164Z,35.50
2022-12-04T12:40:14.746Z,38.22
2022-12-04T12:42:25.767Z,36.88
2022-12-04T12:44:46.929Z,34.97
2022-12-04T12:47:12.985Z,36.42
2022-12-04T12:49:32.462Z,35.70
2022-12-04T12:51:45.974Z,36.53
2022-12-04T12:53:51.218Z,36.78
2022-12-04T12:55:55.725Z,38.20
2022-12-04T12:58:26.595Z,40.10
2022-12-04T13:00:28.672Z,35.30
2022-12-04T13:02:47.017Z,35.97
2022-12-04T13:04:50.573Z,37.03
2022-12-04T13:07:24.745Z,35.47
2022-12-04T13:10:01.936Z,36.00
2022-12-04T13:12:24.286Z,36.17
2022-12-04T13:14:49.187Z,36.57
2022-12-04T13:17:26.695Z,36.72
2022-12-04T13:19:54.765Z,36.08
2022-12-04T13:22:51.119Z,34.22
2022-12-04T13:25:45.438Z,37.38
2022-12-04T13:28:36.261Z,35.13
2022-12-04T13:31:13.534Z,34.58
2022-12-04T13:34:19.364Z,36.03
2022-12-04T13:37:09.151Z,33.88
2022-12-04T13:40:19.496Z,36.67
2022-12-04T13:42:42.327Z,36.22
2022-12-04T13:45:10.601Z,36.10
2022-12-04T13:47:34.458Z,34.67
2022-12-04T13:50:36.353Z,36.30
2022-12-04T13:52:58.738Z,36.88
2022-12-04T13:55:37.741Z,35.77
2022-12-04T13:58:10.606Z,35.85
2022-12-04T14:00:35.076Z,34.15
2022-12-04T14:03:24.238Z,34.95
2022-12-04T14:05:46.663Z,35.13
2022-12-04T14:08:25.673Z,37.33
2022-12-04T14:11:12.280Z,37.00
2022-12-04T14:13:47.853Z,35.47
2022-12-04T14:16:35.103Z,37.55
2022-12-04T14:19:01.497Z,37.78
2022-12-04T14:21:23.911Z,35.92
2022-12-04T14:23:46.286Z,34.88
2022-12-04T14:27:10.245Z,36.53
2022-12-04T14:29:25.980Z,37.83
2022-12-04T14:31:48.285Z,35.78
2022-12-04T14:34:31.937Z,36.97
2022-12-04T14:36:54.943Z,36.03
2022-12-04T14:39:32.304Z,37.63
2022-12-04T14:42:12.883Z,38.38
2022-12-04T14:44:35.228Z,37.95
2022-12-04T14:47:37.566Z,36.70
2022-12-04T14:50:40.457Z,37.13
2022-12-04T14:53:30.417Z,36.47
2022-12-04T14:56:26.334Z,36.42
2022-12-04T14:58:48.642Z,37.72
2022-12-04T15:01:29.383Z,37.90
2022-12-04T15:03:56.039Z,35.08
2022-12-04T15:06:29.436Z,36.03
2022-12-04T15:09:22.258Z,37.22
2022-12-04T15:12:13.510Z,35.05
2022-12-04T15:14:43.089Z,34.65
2022-12-04T15:17:05.491Z,36.55
2022-12-04T15:19:27.908Z,35.88
2022-12-04T15:21:50.312Z,35.80
2022-12-04T15:24:24.267Z,34.78
2022-12-04T15:26:47.665Z,36.03
2022-12-04T15:29:17.324Z,36.75
2022-12-04T15:31:47.114Z,35.78
2022-12-04T15:34:17.634Z,35.70
2022-12-04T15:36:52.060Z,37.50
2022-12-04T15:39:20.741Z,35.95
2022-12-04T15:41:43.107Z,38.03
2022-12-04T15:44:34.584Z,40.17
2022-12-04T15:47:00.193Z,39.58
2022-12-04T15:49:34.215Z,37.85
2022-12-04T15:52:16.980Z,38.10
2022-12-04T15:55:03.185Z,40.00
2022-12-04T15:57:40.586Z,38.95
2022-12-04T16:00:08.203Z,37.63
2022-12-04T16:02:41.678Z,41.08
2022-12-04T16:07:35.751Z,41.17
2022-12-04T16:10:04.075Z,42.28
2022-12-04T16:12:31.488Z,40.10
2022-12-04T16:14:55.464Z,38.47
2022-12-04T16:17:18.609Z,42.63
2022-12-04T16:19:41.534Z,39.40
2022-12-04T16:22:10.399Z,40.33
2022-12-04T16:24:32.711Z,42.10
2022-12-04T16:27:00.394Z,41.33
2022-12-04T16:29:23.583Z,40.38
2022-12-04T16:31:46.280Z,39.40
2022-12-04T16:34:11.494Z,40.85
2022-12-04T16:36:34.153Z,39.95
2022-12-04T16:38:56.689Z,41.53
2022-12-04T16:41:19.676Z,40.38
2022-12-04T16:43:42.011Z,40.92
2022-12-04T16:46:04.468Z,40.63
2022-12-04T16:48:27.629Z,38.50
2022-12-04T16:50:49.990Z,39.17
2022-12-04T16:53:20.492Z,39.08
2022-12-04T16:55:46.434Z,41.00
2022-12-04T16:58:08.728Z,39.08
2022-12-04T17:00:31.073Z,38.57
2022-12-04T17:02:53.398Z,36.83
2022-12-04T17:05:24.872Z,37.63
2022-12-04T17:07:47.282Z,37.65
2022-12-04T17:10:09.925Z,37.85
2022-12-04T17:12:32.215Z,37.72
2022-12-04T17:14:54.805Z,36.70
2022-12-04T17:17:17.396Z,36.88
2022-12-04T17:19:40.012Z,34.50
2022-12-04T17:22:02.386Z,37.63
2022-12-04T17:24:24.693Z,37.22
2022-12-04T17:26:35.462Z,38.22
2022-12-04T17:28:37.647Z,37.17
2022-12-04T17:30:39.631Z,37.58
2022-12-04T17:32:41.754Z,37.65
2022-12-04T17:34:44.246Z,37.72
2022-12-04T17:36:46.536Z,38.50
2022-12-04T17:38:52.246Z,36.47
2022-12-04T17:41:00.082Z,38.28
2022-12-04T17:43:02.313Z,38.80
2022-12-04T17:45:05.201Z,39.60
2022-12-04T17:47:07.748Z,37.50
2022-12-04T17:49:10.069Z,39.03
2022-12-04T17:51:15.218Z,38.50
2022-12-04T17:53:17.479Z,41.30
2022-12-04T17:55:19.799Z,41.28
2022-12-04T17:57:24.732Z,41.65
2022-12-04T17:59:27.243Z,43.13
2022-12-04T18:01:29.754Z,37.83
2022-12-04T18:05:35.019Z,36.67
2022-12-04T18:07:37.331Z,37.50
2022-12-04T18:09:39.755Z,39.20
2022-12-04T18:11:44.611Z,41.10
2022-12-04T18:13:54.463Z,41.08
2022-12-04T18:15:56.644Z,40.08
2022-12-04T18:17:58.649Z,38.65
2022-12-04T18:20:04.483Z,39.60
2022-12-04T18:22:07.169Z,39.35
2022-12-04T18:24:09.647Z,41.13
2022-12-04T18:26:14.294Z,38.78
2022-12-04T18:28:16.606Z,40.45
2022-12-04T18:30:18.801Z,39.22
2022-12-04T18:32:21.185Z,40.08
2022-12-04T18:34:23.660Z,38.03
2022-12-04T18:36:28.799Z,37.03
2022-12-04T18:38:32.030Z,37.08
2022-12-04T18:40:37.129Z,37.80
2022-12-04T18:42:39.267Z,38.28
2022-12-04T18:46:47.298Z,36.08
2022-12-04T18:48:52.601Z,38.75
2022-12-04T18:50:55.857Z,37.97
2022-12-04T18:53:01.167Z,38.15
2022-12-04T18:55:04.517Z,38.85
2022-12-04T18:57:08.342Z,37.03
2022-12-04T18:59:14.854Z,38.40
2022-12-04T19:01:18.991Z,35.28
2022-12-04T19:03:21.186Z,37.35
2022-12-04T19:05:23.279Z,36.58
2022-12-04T19:07:28.119Z,38.35
2022-12-04T19:11:52.972Z,36.47
2022-12-04T19:13:56.199Z,34.53
2022-12-04T19:15:58.245Z,37.20
2022-12-04T19:18:00.359Z,35.00
2022-12-04T19:20:05.708Z,34.72
2022-12-04T19:22:07.819Z,35.10
2022-12-04T19:24:10.513Z,33.28
2022-12-04T19:26:12.989Z,35.03
2022-12-04T19:28:15.184Z,34.40
2022-12-04T19:30:17.767Z,37.42
2022-12-04T19:32:20.146Z,37.17
2022-12-04T19:36:25.933Z,35.30
2022-12-04T19:38:28.176Z,37.83
2022-12-04T19:40:30.176Z,38.85
2022-12-04T19:42:32.422Z,38.67
2022-12-04T19:44:50.268Z,39.08
2022-12-04T19:46:52.395Z,39.40
2022-12-04T19:48:58.139Z,40.42
2022-12-04T19:51:05.472Z,40.80
2022-12-04T19:53:07.505Z,38.80
2022-12-04T19:55:09.665Z,39.03
2022-12-04T19:57:11.719Z,39.08
2022-12-04T19:59:13.951Z,38.33
2022-12-04T20:01:18.052Z,38.75
2022-12-04T20:03:20.134Z,38.40
2022-12-04T20:07:24.902Z,36.90
2022-12-04T20:09:27.512Z,35.80
2022-12-04T20:11:32.202Z,36.03
2022-12-04T20:13:36.829Z,35.08
2022-12-04T20:15:40.295Z,35.55
2022-12-04T20:17:42.344Z,34.50
2022-12-04T20:19:44.406Z,34.90
2022-12-04T20:21:46.710Z,37.67
2022-12-04T20:23:50.689Z,36.13
2022-12-04T20:25:52.757Z,36.03
2022-12-04T20:29:57.613Z,35.92
2022-12-04T20:31:59.819Z,33.90
2022-12-04T20:34:05.466Z,34.67
2022-12-04T20:36:09.477Z,36.08
2022-12-04T20:38:13.500Z,36.58
2022-12-04T20:40:16.274Z,33.67
2022-12-04T20:42:19.261Z,34.65
2022-12-04T20:44:21.479Z,35.55
2022-12-04T20:46:31.728Z,35.63
2022-12-04T20:48:34.203Z,35.65
2022-12-04T20:50:36.445Z,33.78
2022-12-04T20:54:41.858Z,35.05
2022-12-04T20:56:44.469Z,35.97
2022-12-04T20:58:46.915Z,35.80
2022-12-04T21:02:52.702Z,31.85
2022-12-04T21:04:55.475Z,33.22
2022-12-04T21:06:59.199Z,32.42
2022-12-04T21:09:05.956Z,34.05
2022-12-04T21:11:08.231Z,33.35
2022-12-04T21:13:29.205Z,35.80
2022-12-04T21:15:49.892Z,32.55
2022-12-04T21:17:52.883Z,35.10
2022-12-04T21:19:55.893Z,32.85
2022-12-04T21:21:58.825Z,34.55
2022-12-04T21:24:00.973Z,33.00
2022-12-04T21:26:04.006Z,33.38
2022-12-04T21:28:06.594Z,34.55
2022-12-04T21:30:09.455Z,34.33
2022-12-04T21:32:12.196Z,32.85
2022-12-04T21:34:16.909Z,33.28
2022-12-04T21:36:19.893Z,34.10
2022-12-04T21:38:22.216Z,33.10
2022-12-04T21:42:34.898Z,33.05
2022-12-04T21:44:37.027Z,31.58
2022-12-04T21:46:40.182Z,33.25
2022-12-04T21:48:42.775Z,32.45
2022-12-04T21:50:45.403Z,31.17
2022-12-04T21:52:47.636Z,31.70
2022-12-04T21:54:53.859Z,30.75
2022-12-04T21:56:56.908Z,32.05
2022-12-04T21:58:59.496Z,34.53
2022-12-04T22:01:12.492Z,31.90
2022-12-04T22:03:15.248Z,31.85
2022-12-04T22:05:17.739Z,33.83
2022-12-04T22:07:22.045Z,33.92
2022-12-04T22:09:26.099Z,33.58
2022-12-04T22:11:28.116Z,33.72
2022-12-04T22:13:30.209Z,32.92
2022-12-04T22:15:39.149Z,33.33
2022-12-04T22:17:59.668Z,33.35
2022-12-04T22:20:20.226Z,30.02
2022-12-04T22:22:42.549Z,30.90
2022-12-04T22:25:05.199Z,30.27
2022-12-04T22:27:27.505Z,30.38
2022-12-04T22:31:52.049Z,30.65
2022-12-04T22:33:55.287Z,31.63
2022-12-04T22:36:05.630Z,30.23
2022-12-04T22:38:07.627Z,31.30
2022-12-04T22:40:10.674Z,32.38
2022-12-04T22:42:31.477Z,32.85
2022-12-04T22:44:52.992Z,31.27
2022-12-04T22:49:37.734Z,31.40
2022-12-04T22:52:00.052Z,32.75
2022-12-04T22:54:22.373Z,32.25
2022-12-04T22:56:44.714Z,30.30
2022-12-04T22:59:07.025Z,32.72
2022-12-04T23:01:31.872Z,30.27
2022-12-04T23:03:54.442Z,31.83
2022-12-04T23:06:18.051Z,32.45
2022-12-04T23:08:41.219Z,31.80
2022-12-04T23:11:09.875Z,32.45
2022-12-04T23:13:32.361Z,34.72
2022-12-04T23:15:54.665Z,34.92
2022-12-04T23:18:16.989Z,33.67
2022-12-04T23:20:39.317Z,32.53
2022-12-04T23:23:01.680Z,34.50
2022-12-04T23:25:23.991Z,36.33
2022-12-04T23:27:46.310Z,33.97
2022-12-04T23:30:09.386Z,34.43
2022-12-04T23:34:54.219Z,33.28
2022-12-04T23:37:16.589Z,32.10
2022-12-04T23:39:38.893Z,33.85
2022-12-04T23:42:01.205Z,33.77
2022-12-04T23:44:23.510Z,32.90
2022-12-04T23:46:45.919Z,31.93
2022-12-04T23:49:08.301Z,31.63
2022-12-04T23:51:30.647Z,32.10
2022-12-04T23:53:53.024Z,31.70
2022-12-04T23:56:21.318Z,32.25
2022-12-04T23:58:44.634Z,30.98
